sensor_id;sensor_type;location;lat;lon;timestamp;temperature;humidity
50758;DHT22;36732;47.980;11.652;2024-03-08T00:00:00;7.40;57.10
50758;DHT22;36732;47.980;11.652;2024-03-08T00:02:35;7.40;57.20
50758;DHT22;36732;47.980;11.652;2024-03-08T00:05:07;7.40;57.10
50758;DHT22;36732;47.980;11.652;2024-03-08T00:07:36;7.40;57.70
50758;DHT22;36732;47.980;11.652;2024-03-08T00:10:06;7.40;57.20
50758;DHT22;36732;47.980;11.652;2024-03-08T00:12:45;7.30;57.00
50758;DHT22;36732;47.980;11.652;2024-03-08T00:15:16;7.30;57.10
50758;DHT22;36732;47.980;11.652;2024-03-08T00:17:43;7.30;57.80
50758;DHT22;36732;47.980;11.652;2024-03-08T00:20:10;7.30;57.20
50758;DHT22;36732;47.980;11.652;2024-03-08T00:22:39;7.30;57.20
50758;DHT22;36732;47.980;11.652;2024-03-08T00:25:05;7.30;57.10
50758;DHT22;36732;47.980;11.652;2024-03-08T00:27:34;7.30;57.10
50758;DHT22;36732;47.980;11.652;2024-03-08T00:30:00;7.30;57.30
50758;DHT22;36732;47.980;11.652;2024-03-08T00:32:26;7.30;57.10
50758;DHT22;36732;47.980;11.652;2024-03-08T00:34:55;7.20;57.00
50758;DHT22;36732;47.980;11.652;2024-03-08T00:37:21;7.20;57.00
50758;DHT22;36732;47.980;11.652;2024-03-08T00:39:53;7.20;57.00
50758;DHT22;36732;47.980;11.652;2024-03-08T00:42:19;7.20;56.90
50758;DHT22;36732;47.980;11.652;2024-03-08T00:44:46;7.20;57.00
50758;DHT22;36732;47.980;11.652;2024-03-08T00:47:13;7.20;57.00
50758;DHT22;36732;47.980;11.652;2024-03-08T00:49:41;7.20;57.00
50758;DHT22;36732;47.980;11.652;2024-03-08T00:52:07;7.20;56.90
50758;DHT22;36732;47.980;11.652;2024-03-08T00:54:34;7.10;57.00
50758;DHT22;36732;47.980;11.652;2024-03-08T00:57:01;7.10;57.00
50758;DHT22;36732;47.980;11.652;2024-03-08T00:59:31;7.10;57.10
50758;DHT22;36732;47.980;11.652;2024-03-08T01:01:58;7.10;57.10
50758;DHT22;36732;47.980;11.652;2024-03-08T01:04:26;7.10;57.10
50758;DHT22;36732;47.980;11.652;2024-03-08T01:06:55;7.10;57.10
50758;DHT22;36732;47.980;11.652;2024-03-08T01:09:22;7.00;57.10
50758;DHT22;36732;47.980;11.652;2024-03-08T01:11:48;7.10;57.10
50758;DHT22;36732;47.980;11.652;2024-03-08T01:14:14;7.00;57.10
50758;DHT22;36732;47.980;11.652;2024-03-08T01:16:40;7.00;57.70
50758;DHT22;36732;47.980;11.652;2024-03-08T01:19:06;7.00;57.00
50758;DHT22;36732;47.980;11.652;2024-03-08T01:21:32;7.00;57.00
50758;DHT22;36732;47.980;11.652;2024-03-08T01:23:57;7.00;57.10
50758;DHT22;36732;47.980;11.652;2024-03-08T01:26:23;7.00;57.10
50758;DHT22;36732;47.980;11.652;2024-03-08T01:28:49;7.00;57.10
50758;DHT22;36732;47.980;11.652;2024-03-08T01:31:15;7.00;56.90
50758;DHT22;36732;47.980;11.652;2024-03-08T01:33:41;7.00;57.00
50758;DHT22;36732;47.980;11.652;2024-03-08T01:36:07;6.90;56.90
50758;DHT22;36732;47.980;11.652;2024-03-08T01:38:33;7.00;56.90
50758;DHT22;36732;47.980;11.652;2024-03-08T01:40:59;6.90;56.80
50758;DHT22;36732;47.980;11.652;2024-03-08T01:43:26;6.90;56.80
50758;DHT22;36732;47.980;11.652;2024-03-08T01:45:55;6.90;56.70
50758;DHT22;36732;47.980;11.652;2024-03-08T01:48:24;6.90;56.70
50758;DHT22;36732;47.980;11.652;2024-03-08T01:50:50;6.90;56.70
50758;DHT22;36732;47.980;11.652;2024-03-08T01:53:18;6.90;56.70
50758;DHT22;36732;47.980;11.652;2024-03-08T01:55:48;6.90;56.70
50758;DHT22;36732;47.980;11.652;2024-03-08T01:58:15;6.90;56.80
50758;DHT22;36732;47.980;11.652;2024-03-08T02:00:44;6.80;56.90
50758;DHT22;36732;47.980;11.652;2024-03-08T02:03:10;6.80;56.80
50758;DHT22;36732;47.980;11.652;2024-03-08T02:05:37;6.80;56.90
50758;DHT22;36732;47.980;11.652;2024-03-08T02:08:04;6.80;56.90
50758;DHT22;36732;47.980;11.652;2024-03-08T02:10:33;6.80;56.80
50758;DHT22;36732;47.980;11.652;2024-03-08T02:13:02;6.80;56.80
50758;DHT22;36732;47.980;11.652;2024-03-08T02:15:51;6.80;56.80
50758;DHT22;36732;47.980;11.652;2024-03-08T02:18:21;6.80;56.50
50758;DHT22;36732;47.980;11.652;2024-03-08T02:20:49;6.80;56.90
50758;DHT22;36732;47.980;11.652;2024-03-08T02:23:15;6.70;56.90
50758;DHT22;36732;47.980;11.652;2024-03-08T02:25:41;6.70;56.90
50758;DHT22;36732;47.980;11.652;2024-03-08T02:28:10;6.70;56.90
50758;DHT22;36732;47.980;11.652;2024-03-08T02:30:36;6.70;56.80
50758;DHT22;36732;47.980;11.652;2024-03-08T02:33:02;6.70;56.80
50758;DHT22;36732;47.980;11.652;2024-03-08T02:35:29;6.70;56.90
50758;DHT22;36732;47.980;11.652;2024-03-08T02:37:55;6.70;56.80
50758;DHT22;36732;47.980;11.652;2024-03-08T02:40:21;6.70;56.70
50758;DHT22;36732;47.980;11.652;2024-03-08T02:42:47;6.70;56.80
50758;DHT22;36732;47.980;11.652;2024-03-08T02:45:13;6.70;56.80
50758;DHT22;36732;47.980;11.652;2024-03-08T02:47:39;6.70;56.80
50758;DHT22;36732;47.980;11.652;2024-03-08T02:50:05;6.70;56.70
50758;DHT22;36732;47.980;11.652;2024-03-08T02:52:33;6.70;56.70
50758;DHT22;36732;47.980;11.652;2024-03-08T02:55:01;6.70;56.80
50758;DHT22;36732;47.980;11.652;2024-03-08T02:57:27;6.60;56.70
50758;DHT22;36732;47.980;11.652;2024-03-08T02:59:53;6.60;56.60
50758;DHT22;36732;47.980;11.652;2024-03-08T03:02:19;6.60;56.60
50758;DHT22;36732;47.980;11.652;2024-03-08T03:04:45;6.60;56.60
50758;DHT22;36732;47.980;11.652;2024-03-08T03:07:11;6.60;56.60
50758;DHT22;36732;47.980;11.652;2024-03-08T03:09:37;6.60;56.60
50758;DHT22;36732;47.980;11.652;2024-03-08T03:12:02;6.60;56.60
50758;DHT22;36732;47.980;11.652;2024-03-08T03:14:28;6.60;56.60
50758;DHT22;36732;47.980;11.652;2024-03-08T03:16:54;6.60;56.60
50758;DHT22;36732;47.980;11.652;2024-03-08T03:19:20;6.60;56.50
50758;DHT22;36732;47.980;11.652;2024-03-08T03:21:46;6.60;56.50
50758;DHT22;36732;47.980;11.652;2024-03-08T03:24:12;6.60;56.50
50758;DHT22;36732;47.980;11.652;2024-03-08T03:26:42;6.60;56.40
50758;DHT22;36732;47.980;11.652;2024-03-08T03:29:09;6.50;56.40
50758;DHT22;36732;47.980;11.652;2024-03-08T03:31:36;6.60;56.50
50758;DHT22;36732;47.980;11.652;2024-03-08T03:34:02;6.50;56.50
50758;DHT22;36732;47.980;11.652;2024-03-08T03:36:32;6.50;57.10
50758;DHT22;36732;47.980;11.652;2024-03-08T03:38:58;6.50;56.40
50758;DHT22;36732;47.980;11.652;2024-03-08T03:41:36;6.50;56.60
50758;DHT22;36732;47.980;11.652;2024-03-08T03:44:02;6.50;56.50
50758;DHT22;36732;47.980;11.652;2024-03-08T03:46:27;6.50;56.40
50758;DHT22;36732;47.980;11.652;2024-03-08T03:48:56;6.50;56.40
50758;DHT22;36732;47.980;11.652;2024-03-08T03:51:22;6.50;56.40
50758;DHT22;36732;47.980;11.652;2024-03-08T03:53:47;6.50;56.50
50758;DHT22;36732;47.980;11.652;2024-03-08T03:56:14;6.50;56.60
50758;DHT22;36732;47.980;11.652;2024-03-08T03:58:39;6.40;56.50
50758;DHT22;36732;47.980;11.652;2024-03-08T04:01:05;6.40;56.60
50758;DHT22;36732;47.980;11.652;2024-03-08T04:03:31;6.40;56.60
50758;DHT22;36732;47.980;11.652;2024-03-08T04:05:57;6.40;56.60
50758;DHT22;36732;47.980;11.652;2024-03-08T04:08:22;6.40;56.60
50758;DHT22;36732;47.980;11.652;2024-03-08T04:10:51;6.40;56.70
50758;DHT22;36732;47.980;11.652;2024-03-08T04:13:17;6.40;56.80
50758;DHT22;36732;47.980;11.652;2024-03-08T04:15:42;6.40;56.80
50758;DHT22;36732;47.980;11.652;2024-03-08T04:18:13;6.40;56.80
50758;DHT22;36732;47.980;11.652;2024-03-08T04:20:39;6.40;56.90
50758;DHT22;36732;47.980;11.652;2024-03-08T04:23:05;6.40;56.90
50758;DHT22;36732;47.980;11.652;2024-03-08T04:25:31;6.40;56.90
50758;DHT22;36732;47.980;11.652;2024-03-08T04:27:57;6.40;57.00
50758;DHT22;36732;47.980;11.652;2024-03-08T04:30:23;6.40;57.10
50758;DHT22;36732;47.980;11.652;2024-03-08T04:32:49;6.40;57.30
50758;DHT22;36732;47.980;11.652;2024-03-08T04:35:15;6.30;57.20
50758;DHT22;36732;47.980;11.652;2024-03-08T04:37:41;6.40;57.40
50758;DHT22;36732;47.980;11.652;2024-03-08T04:40:08;6.30;57.40
50758;DHT22;36732;47.980;11.652;2024-03-08T04:42:34;6.40;57.50
50758;DHT22;36732;47.980;11.652;2024-03-08T04:45:00;6.30;57.50
50758;DHT22;36732;47.980;11.652;2024-03-08T04:47:26;6.30;57.60
50758;DHT22;36732;47.980;11.652;2024-03-08T04:49:52;6.30;57.70
50758;DHT22;36732;47.980;11.652;2024-03-08T04:52:18;6.30;57.80
50758;DHT22;36732;47.980;11.652;2024-03-08T04:54:44;6.30;57.70
50758;DHT22;36732;47.980;11.652;2024-03-08T04:57:12;6.30;57.70
50758;DHT22;36732;47.980;11.652;2024-03-08T04:59:38;6.30;57.90
50758;DHT22;36732;47.980;11.652;2024-03-08T05:02:04;6.30;57.90
50758;DHT22;36732;47.980;11.652;2024-03-08T05:04:29;6.30;58.00
50758;DHT22;36732;47.980;11.652;2024-03-08T05:06:55;6.30;58.00
50758;DHT22;36732;47.980;11.652;2024-03-08T05:09:21;6.30;58.00
50758;DHT22;36732;47.980;11.652;2024-03-08T05:11:47;6.30;58.00
50758;DHT22;36732;47.980;11.652;2024-03-08T05:14:14;6.30;58.10
50758;DHT22;36732;47.980;11.652;2024-03-08T05:16:46;6.30;58.10
50758;DHT22;36732;47.980;11.652;2024-03-08T05:19:15;6.30;58.10
50758;DHT22;36732;47.980;11.652;2024-03-08T05:21:45;6.30;58.10
50758;DHT22;36732;47.980;11.652;2024-03-08T05:24:12;6.30;58.10
50758;DHT22;36732;47.980;11.652;2024-03-08T05:26:39;6.30;58.20
50758;DHT22;36732;47.980;11.652;2024-03-08T05:29:04;6.30;58.20
50758;DHT22;36732;47.980;11.652;2024-03-08T05:31:38;6.30;58.20
50758;DHT22;36732;47.980;11.652;2024-03-08T05:34:08;6.30;58.40
50758;DHT22;36732;47.980;11.652;2024-03-08T05:36:35;6.30;58.30
50758;DHT22;36732;47.980;11.652;2024-03-08T05:39:01;6.30;58.40
50758;DHT22;36732;47.980;11.652;2024-03-08T05:41:26;6.30;58.40
50758;DHT22;36732;47.980;11.652;2024-03-08T05:43:52;6.30;57.70
50758;DHT22;36732;47.980;11.652;2024-03-08T05:46:19;6.30;56.80
50758;DHT22;36732;47.980;11.652;2024-03-08T05:48:44;6.30;56.00
50758;DHT22;36732;47.980;11.652;2024-03-08T05:51:10;6.30;55.80
50758;DHT22;36732;47.980;11.652;2024-03-08T05:53:37;6.20;55.80
50758;DHT22;36732;47.980;11.652;2024-03-08T05:56:03;6.20;56.60
50758;DHT22;36732;47.980;11.652;2024-03-08T05:58:29;6.20;57.20
50758;DHT22;36732;47.980;11.652;2024-03-08T06:00:55;6.20;57.50
50758;DHT22;36732;47.980;11.652;2024-03-08T06:03:21;6.20;57.70
50758;DHT22;36732;47.980;11.652;2024-03-08T06:05:48;6.20;57.90
50758;DHT22;36732;47.980;11.652;2024-03-08T06:08:14;6.20;58.00
50758;DHT22;36732;47.980;11.652;2024-03-08T06:10:41;6.20;58.00
50758;DHT22;36732;47.980;11.652;2024-03-08T06:13:06;6.20;58.10
50758;DHT22;36732;47.980;11.652;2024-03-08T06:15:32;6.20;58.20
50758;DHT22;36732;47.980;11.652;2024-03-08T06:17:58;6.20;58.20
50758;DHT22;36732;47.980;11.652;2024-03-08T06:20:23;6.30;58.30
50758;DHT22;36732;47.980;11.652;2024-03-08T06:22:52;6.30;58.60
50758;DHT22;36732;47.980;11.652;2024-03-08T06:25:18;6.30;58.40
50758;DHT22;36732;47.980;11.652;2024-03-08T06:27:44;6.30;58.50
50758;DHT22;36732;47.980;11.652;2024-03-08T06:30:11;6.30;58.50
50758;DHT22;36732;47.980;11.652;2024-03-08T06:32:37;6.30;58.50
50758;DHT22;36732;47.980;11.652;2024-03-08T06:35:06;6.30;58.40
50758;DHT22;36732;47.980;11.652;2024-03-08T06:37:33;6.30;58.40
50758;DHT22;36732;47.980;11.652;2024-03-08T06:39:59;6.30;58.50
50758;DHT22;36732;47.980;11.652;2024-03-08T06:42:27;6.30;58.50
50758;DHT22;36732;47.980;11.652;2024-03-08T06:44:53;6.40;58.60
50758;DHT22;36732;47.980;11.652;2024-03-08T06:47:21;6.30;58.50
50758;DHT22;36732;47.980;11.652;2024-03-08T06:49:51;6.30;58.60
50758;DHT22;36732;47.980;11.652;2024-03-08T06:52:17;6.30;58.60
50758;DHT22;36732;47.980;11.652;2024-03-08T06:54:43;6.40;58.70
50758;DHT22;36732;47.980;11.652;2024-03-08T06:57:09;6.40;59.40
50758;DHT22;36732;47.980;11.652;2024-03-08T06:59:36;6.30;58.70
50758;DHT22;36732;47.980;11.652;2024-03-08T07:02:02;6.30;58.80
50758;DHT22;36732;47.980;11.652;2024-03-08T07:04:29;6.40;58.80
50758;DHT22;36732;47.980;11.652;2024-03-08T07:06:55;6.40;59.40
50758;DHT22;36732;47.980;11.652;2024-03-08T07:09:23;6.40;58.80
50758;DHT22;36732;47.980;11.652;2024-03-08T07:11:50;6.40;58.90
50758;DHT22;36732;47.980;11.652;2024-03-08T07:14:23;6.40;58.80
50758;DHT22;36732;47.980;11.652;2024-03-08T07:16:49;6.30;58.80
50758;DHT22;36732;47.980;11.652;2024-03-08T07:19:16;6.40;59.00
50758;DHT22;36732;47.980;11.652;2024-03-08T07:21:45;6.40;58.90
50758;DHT22;36732;47.980;11.652;2024-03-08T07:24:12;6.40;59.10
50758;DHT22;36732;47.980;11.652;2024-03-08T07:26:42;6.40;59.10
50758;DHT22;36732;47.980;11.652;2024-03-08T07:29:15;6.40;59.10
50758;DHT22;36732;47.980;11.652;2024-03-08T07:31:41;6.30;59.00
50758;DHT22;36732;47.980;11.652;2024-03-08T07:34:07;6.40;59.00
50758;DHT22;36732;47.980;11.652;2024-03-08T07:36:35;6.40;59.10
50758;DHT22;36732;47.980;11.652;2024-03-08T07:39:01;6.40;59.10
50758;DHT22;36732;47.980;11.652;2024-03-08T07:41:27;6.40;59.10
50758;DHT22;36732;47.980;11.652;2024-03-08T07:43:55;6.40;59.10
50758;DHT22;36732;47.980;11.652;2024-03-08T07:46:21;6.30;59.20
50758;DHT22;36732;47.980;11.652;2024-03-08T07:48:47;6.30;59.10
50758;DHT22;36732;47.980;11.652;2024-03-08T07:51:16;6.30;59.20
50758;DHT22;36732;47.980;11.652;2024-03-08T07:53:43;6.30;59.20
50758;DHT22;36732;47.980;11.652;2024-03-08T07:56:09;6.30;59.30
50758;DHT22;36732;47.980;11.652;2024-03-08T07:58:38;6.30;59.30
50758;DHT22;36732;47.980;11.652;2024-03-08T08:01:06;6.30;59.40
50758;DHT22;36732;47.980;11.652;2024-03-08T08:03:32;6.30;59.40
50758;DHT22;36732;47.980;11.652;2024-03-08T08:05:57;6.30;59.50
50758;DHT22;36732;47.980;11.652;2024-03-08T08:08:23;6.30;59.60
50758;DHT22;36732;47.980;11.652;2024-03-08T08:10:51;6.30;59.50
50758;DHT22;36732;47.980;11.652;2024-03-08T08:13:17;6.30;59.50
50758;DHT22;36732;47.980;11.652;2024-03-08T08:15:43;6.30;59.50
50758;DHT22;36732;47.980;11.652;2024-03-08T08:18:09;6.30;59.50
50758;DHT22;36732;47.980;11.652;2024-03-08T08:20:35;6.30;59.50
50758;DHT22;36732;47.980;11.652;2024-03-08T08:23:01;6.30;59.60
50758;DHT22;36732;47.980;11.652;2024-03-08T08:25:26;6.40;59.80
50758;DHT22;36732;47.980;11.652;2024-03-08T08:27:52;6.30;59.70
50758;DHT22;36732;47.980;11.652;2024-03-08T08:30:19;6.30;59.80
50758;DHT22;36732;47.980;11.652;2024-03-08T08:32:45;6.40;59.90
50758;DHT22;36732;47.980;11.652;2024-03-08T08:35:14;6.40;59.90
50758;DHT22;36732;47.980;11.652;2024-03-08T08:37:39;6.40;60.00
50758;DHT22;36732;47.980;11.652;2024-03-08T08:40:05;6.40;59.90
50758;DHT22;36732;47.980;11.652;2024-03-08T08:42:36;6.40;59.90
50758;DHT22;36732;47.980;11.652;2024-03-08T08:45:05;6.40;60.00
50758;DHT22;36732;47.980;11.652;2024-03-08T08:47:34;6.50;60.10
50758;DHT22;36732;47.980;11.652;2024-03-08T08:50:01;6.50;60.10
50758;DHT22;36732;47.980;11.652;2024-03-08T08:52:27;6.50;60.00
50758;DHT22;36732;47.980;11.652;2024-03-08T08:54:54;6.40;60.00
50758;DHT22;36732;47.980;11.652;2024-03-08T08:57:20;6.50;60.20
50758;DHT22;36732;47.980;11.652;2024-03-08T08:59:46;6.50;60.30
50758;DHT22;36732;47.980;11.652;2024-03-08T09:02:11;6.50;60.20
50758;DHT22;36732;47.980;11.652;2024-03-08T09:04:38;6.50;60.20
50758;DHT22;36732;47.980;11.652;2024-03-08T09:07:04;6.50;60.30
50758;DHT22;36732;47.980;11.652;2024-03-08T09:09:32;6.50;60.40
50758;DHT22;36732;47.980;11.652;2024-03-08T09:11:58;6.50;60.50
50758;DHT22;36732;47.980;11.652;2024-03-08T09:14:23;6.60;60.60
50758;DHT22;36732;47.980;11.652;2024-03-08T09:16:51;6.60;60.60
50758;DHT22;36732;47.980;11.652;2024-03-08T09:19:17;6.60;60.60
50758;DHT22;36732;47.980;11.652;2024-03-08T09:21:44;6.70;60.60
50758;DHT22;36732;47.980;11.652;2024-03-08T09:24:10;6.70;60.60
50758;DHT22;36732;47.980;11.652;2024-03-08T09:26:37;6.70;60.50
50758;DHT22;36732;47.980;11.652;2024-03-08T09:29:03;6.70;60.30
50758;DHT22;36732;47.980;11.652;2024-03-08T09:31:30;6.70;60.20
50758;DHT22;36732;47.980;11.652;2024-03-08T09:33:56;6.70;60.20
50758;DHT22;36732;47.980;11.652;2024-03-08T09:36:22;6.80;60.30
50758;DHT22;36732;47.980;11.652;2024-03-08T09:38:48;6.80;60.50
50758;DHT22;36732;47.980;11.652;2024-03-08T09:41:15;6.80;60.60
50758;DHT22;36732;47.980;11.652;2024-03-08T09:43:41;6.80;60.80
50758;DHT22;36732;47.980;11.652;2024-03-08T09:46:07;6.80;60.80
50758;DHT22;36732;47.980;11.652;2024-03-08T09:48:33;6.80;60.80
50758;DHT22;36732;47.980;11.652;2024-03-08T09:51:00;6.90;61.00
50758;DHT22;36732;47.980;11.652;2024-03-08T09:53:26;6.90;60.90
50758;DHT22;36732;47.980;11.652;2024-03-08T09:55:51;6.90;60.90
50758;DHT22;36732;47.980;11.652;2024-03-08T09:58:17;6.90;60.90
50758;DHT22;36732;47.980;11.652;2024-03-08T10:01:07;7.00;61.10
50758;DHT22;36732;47.980;11.652;2024-03-08T10:03:33;7.00;61.10
50758;DHT22;36732;47.980;11.652;2024-03-08T10:06:00;7.00;61.10
50758;DHT22;36732;47.980;11.652;2024-03-08T10:08:29;7.00;61.20
50758;DHT22;36732;47.980;11.652;2024-03-08T10:10:56;7.10;61.30
50758;DHT22;36732;47.980;11.652;2024-03-08T10:13:25;7.10;61.20
50758;DHT22;36732;47.980;11.652;2024-03-08T10:15:54;7.10;61.30
50758;DHT22;36732;47.980;11.652;2024-03-08T10:18:21;7.10;61.30
50758;DHT22;36732;47.980;11.652;2024-03-08T10:21:05;7.10;61.30
50758;DHT22;36732;47.980;11.652;2024-03-08T10:23:33;7.20;61.30
50758;DHT22;36732;47.980;11.652;2024-03-08T10:26:11;7.20;61.20
50758;DHT22;36732;47.980;11.652;2024-03-08T10:28:40;7.20;61.40
50758;DHT22;36732;47.980;11.652;2024-03-08T10:31:13;7.20;61.30
50758;DHT22;36732;47.980;11.652;2024-03-08T10:33:40;7.20;61.40
50758;DHT22;36732;47.980;11.652;2024-03-08T10:36:10;7.30;61.40
50758;DHT22;36732;47.980;11.652;2024-03-08T10:38:41;7.30;61.40
50758;DHT22;36732;47.980;11.652;2024-03-08T10:41:12;7.30;61.40
50758;DHT22;36732;47.980;11.652;2024-03-08T10:43:52;7.30;61.40
50758;DHT22;36732;47.980;11.652;2024-03-08T10:49:09;7.40;61.40
50758;DHT22;36732;47.980;11.652;2024-03-08T10:51:38;7.40;61.30
50758;DHT22;36732;47.980;11.652;2024-03-08T10:54:08;7.40;61.40
50758;DHT22;36732;47.980;11.652;2024-03-08T10:56:35;7.40;61.40
50758;DHT22;36732;47.980;11.652;2024-03-08T10:59:01;7.40;61.50
50758;DHT22;36732;47.980;11.652;2024-03-08T11:01:29;7.50;61.70
50758;DHT22;36732;47.980;11.652;2024-03-08T11:03:55;7.50;61.70
50758;DHT22;36732;47.980;11.652;2024-03-08T11:06:41;7.50;61.70
50758;DHT22;36732;47.980;11.652;2024-03-08T11:09:30;7.50;61.70
50758;DHT22;36732;47.980;11.652;2024-03-08T11:12:38;7.60;61.60
50758;DHT22;36732;47.980;11.652;2024-03-08T11:15:11;7.60;61.70
50758;DHT22;36732;47.980;11.652;2024-03-08T11:22:54;7.60;61.80
50758;DHT22;36732;47.980;11.652;2024-03-08T11:25:36;7.70;61.90
50758;DHT22;36732;47.980;11.652;2024-03-08T11:30:47;7.70;61.80
50758;DHT22;36732;47.980;11.652;2024-03-08T11:33:36;7.70;61.90
50758;DHT22;36732;47.980;11.652;2024-03-08T11:36:11;7.80;61.90
50758;DHT22;36732;47.980;11.652;2024-03-08T11:38:51;7.80;62.00
50758;DHT22;36732;47.980;11.652;2024-03-08T11:41:27;7.80;61.80
50758;DHT22;36732;47.980;11.652;2024-03-08T11:44:03;7.80;61.80
50758;DHT22;36732;47.980;11.652;2024-03-08T11:46:34;7.90;61.90
50758;DHT22;36732;47.980;11.652;2024-03-08T11:49:00;7.90;61.80
50758;DHT22;36732;47.980;11.652;2024-03-08T11:51:27;7.90;61.90
50758;DHT22;36732;47.980;11.652;2024-03-08T11:53:52;7.90;61.80
50758;DHT22;36732;47.980;11.652;2024-03-08T11:56:18;8.00;61.80
50758;DHT22;36732;47.980;11.652;2024-03-08T11:58:55;8.00;61.80
50758;DHT22;36732;47.980;11.652;2024-03-08T12:01:22;8.00;61.80
50758;DHT22;36732;47.980;11.652;2024-03-08T12:03:58;8.10;61.90
50758;DHT22;36732;47.980;11.652;2024-03-08T12:06:25;8.10;61.80
50758;DHT22;36732;47.980;11.652;2024-03-08T12:08:52;8.10;61.90
50758;DHT22;36732;47.980;11.652;2024-03-08T12:11:19;8.10;62.00
50758;DHT22;36732;47.980;11.652;2024-03-08T12:13:49;8.10;61.90
50758;DHT22;36732;47.980;11.652;2024-03-08T12:16:19;8.20;62.00
50758;DHT22;36732;47.980;11.652;2024-03-08T12:18:47;8.20;61.90
50758;DHT22;36732;47.980;11.652;2024-03-08T12:21:13;8.20;62.00
50758;DHT22;36732;47.980;11.652;2024-03-08T12:23:44;8.20;61.80
50758;DHT22;36732;47.980;11.652;2024-03-08T12:26:15;8.20;61.90
50758;DHT22;36732;47.980;11.652;2024-03-08T12:28:43;8.30;61.90
50758;DHT22;36732;47.980;11.652;2024-03-08T12:31:18;8.30;61.90
50758;DHT22;36732;47.980;11.652;2024-03-08T12:33:55;8.30;61.90
50758;DHT22;36732;47.980;11.652;2024-03-08T12:36:24;8.30;61.90
50758;DHT22;36732;47.980;11.652;2024-03-08T12:38:51;8.40;61.90
50758;DHT22;36732;47.980;11.652;2024-03-08T12:41:20;8.40;61.90
50758;DHT22;36732;47.980;11.652;2024-03-08T12:43:47;8.40;61.90
50758;DHT22;36732;47.980;11.652;2024-03-08T12:46:20;8.50;62.00
50758;DHT22;36732;47.980;11.652;2024-03-08T12:48:46;8.40;61.90
50758;DHT22;36732;47.980;11.652;2024-03-08T12:51:16;8.50;61.90
50758;DHT22;36732;47.980;11.652;2024-03-08T12:53:43;8.50;62.00
50758;DHT22;36732;47.980;11.652;2024-03-08T12:56:10;8.50;61.90
50758;DHT22;36732;47.980;11.652;2024-03-08T12:58:36;8.50;61.90
50758;DHT22;36732;47.980;11.652;2024-03-08T13:01:03;8.50;61.90
50758;DHT22;36732;47.980;11.652;2024-03-08T13:03:33;8.50;61.80
50758;DHT22;36732;47.980;11.652;2024-03-08T13:06:03;8.60;62.30
50758;DHT22;36732;47.980;11.652;2024-03-08T13:08:34;8.60;61.50
50758;DHT22;36732;47.980;11.652;2024-03-08T13:11:01;8.60;61.50
50758;DHT22;36732;47.980;11.652;2024-03-08T13:13:28;8.60;61.50
50758;DHT22;36732;47.980;11.652;2024-03-08T13:15:54;8.60;61.40
50758;DHT22;36732;47.980;11.652;2024-03-08T13:18:22;8.60;61.30
50758;DHT22;36732;47.980;11.652;2024-03-08T13:20:48;8.70;61.30
50758;DHT22;36732;47.980;11.652;2024-03-08T13:23:17;8.70;61.30
50758;DHT22;36732;47.980;11.652;2024-03-08T13:25:43;8.70;61.20
50758;DHT22;36732;47.980;11.652;2024-03-08T13:28:09;8.70;61.10
50758;DHT22;36732;47.980;11.652;2024-03-08T13:30:36;8.70;61.10
50758;DHT22;36732;47.980;11.652;2024-03-08T13:33:02;8.80;61.20
50758;DHT22;36732;47.980;11.652;2024-03-08T13:35:30;8.80;61.10
50758;DHT22;36732;47.980;11.652;2024-03-08T13:37:56;8.80;60.90
50758;DHT22;36732;47.980;11.652;2024-03-08T13:40:22;8.80;60.70
50758;DHT22;36732;47.980;11.652;2024-03-08T13:42:48;8.80;60.70
50758;DHT22;36732;47.980;11.652;2024-03-08T13:45:15;8.90;60.70
50758;DHT22;36732;47.980;11.652;2024-03-08T13:47:46;8.90;60.70
50758;DHT22;36732;47.980;11.652;2024-03-08T13:50:12;8.90;60.40
50758;DHT22;36732;47.980;11.652;2024-03-08T13:52:41;8.90;60.40
50758;DHT22;36732;47.980;11.652;2024-03-08T13:55:09;8.90;60.10
50758;DHT22;36732;47.980;11.652;2024-03-08T13:57:35;8.90;60.00
50758;DHT22;36732;47.980;11.652;2024-03-08T14:00:01;9.00;59.90
50758;DHT22;36732;47.980;11.652;2024-03-08T14:02:28;9.00;59.90
50758;DHT22;36732;47.980;11.652;2024-03-08T14:04:55;9.00;60.00
50758;DHT22;36732;47.980;11.652;2024-03-08T14:07:21;9.00;59.80
50758;DHT22;36732;47.980;11.652;2024-03-08T14:09:51;9.00;59.80
50758;DHT22;36732;47.980;11.652;2024-03-08T14:12:18;9.00;59.70
50758;DHT22;36732;47.980;11.652;2024-03-08T14:14:44;9.00;59.70
50758;DHT22;36732;47.980;11.652;2024-03-08T14:17:10;9.00;59.70
50758;DHT22;36732;47.980;11.652;2024-03-08T14:19:37;9.10;59.70
50758;DHT22;36732;47.980;11.652;2024-03-08T14:22:04;9.10;59.80
50758;DHT22;36732;47.980;11.652;2024-03-08T14:24:31;9.10;59.90
50758;DHT22;36732;47.980;11.652;2024-03-08T14:26:57;9.10;59.90
50758;DHT22;36732;47.980;11.652;2024-03-08T14:29:27;9.10;60.00
50758;DHT22;36732;47.980;11.652;2024-03-08T14:31:55;9.10;60.10
50758;DHT22;36732;47.980;11.652;2024-03-08T14:34:27;9.20;60.20
50758;DHT22;36732;47.980;11.652;2024-03-08T14:36:55;9.10;60.00
50758;DHT22;36732;47.980;11.652;2024-03-08T14:39:21;9.10;60.10
50758;DHT22;36732;47.980;11.652;2024-03-08T14:41:47;9.20;60.20
50758;DHT22;36732;47.980;11.652;2024-03-08T14:44:13;9.20;60.40
50758;DHT22;36732;47.980;11.652;2024-03-08T14:46:40;9.20;60.60
50758;DHT22;36732;47.980;11.652;2024-03-08T14:49:07;9.20;60.50
50758;DHT22;36732;47.980;11.652;2024-03-08T14:51:33;9.30;60.50
50758;DHT22;36732;47.980;11.652;2024-03-08T14:54:00;9.30;60.40
50758;DHT22;36732;47.980;11.652;2024-03-08T14:56:26;9.30;60.20
50758;DHT22;36732;47.980;11.652;2024-03-08T14:58:52;9.30;60.30
50758;DHT22;36732;47.980;11.652;2024-03-08T15:01:19;9.30;60.40
50758;DHT22;36732;47.980;11.652;2024-03-08T15:03:50;9.30;60.50
50758;DHT22;36732;47.980;11.652;2024-03-08T15:06:16;9.30;60.10
50758;DHT22;36732;47.980;11.652;2024-03-08T15:08:45;9.40;60.10
50758;DHT22;36732;47.980;11.652;2024-03-08T15:11:11;9.40;59.90
50758;DHT22;36732;47.980;11.652;2024-03-08T15:13:37;9.40;59.80
50758;DHT22;36732;47.980;11.652;2024-03-08T15:16:08;9.40;59.80
50758;DHT22;36732;47.980;11.652;2024-03-08T15:18:34;9.40;59.50
50758;DHT22;36732;47.980;11.652;2024-03-08T15:21:04;9.40;59.60
50758;DHT22;36732;47.980;11.652;2024-03-08T15:23:37;9.40;59.60
50758;DHT22;36732;47.980;11.652;2024-03-08T15:26:08;9.40;59.50
50758;DHT22;36732;47.980;11.652;2024-03-08T15:28:34;9.40;59.70
50758;DHT22;36732;47.980;11.652;2024-03-08T15:31:06;9.50;59.70
50758;DHT22;36732;47.980;11.652;2024-03-08T15:33:36;9.50;59.70
50758;DHT22;36732;47.980;11.652;2024-03-08T15:36:17;9.50;59.70
50758;DHT22;36732;47.980;11.652;2024-03-08T15:38:46;9.50;59.70
50758;DHT22;36732;47.980;11.652;2024-03-08T15:41:15;9.50;59.60
50758;DHT22;36732;47.980;11.652;2024-03-08T15:43:43;9.50;59.60